Time;durP1;ratioP1;P1;durP2;ratioP2;P2;SDS_P1;SDS_P2;PMS_P1;PMS_P2;Temp;Humidity;BMP_temperature;BMP_pressure;BME280_temperature;BME280_humidity;BME280_pressure;Samples;Min_cycle;Max_cycle;Signal;HPM_P1;HPM_P2
2021/05/09 00:00:27;;;;;;;39.70;18.90;;;;;;;9.91;59.20;100586.77;1699731;83;25259;-81
2021/05/09 00:02:54;;;;;;;36.53;17.92;;;;;;;9.87;59.25;100582.76;1694789;83;21196;-79
2021/05/09 00:05:20;;;;;;;36.90;17.95;;;;;;;9.91;59.08;100585.44;1690375;84;21451;-79
2021/05/09 00:07:47;;;;;;;39.73;18.40;;;;;;;9.86;59.21;100579.77;1690313;84;21869;-82
2021/05/09 00:10:15;;;;;;;;;;;;;;;9.83;59.30;100585.33;1692448;83;21623;-83
2021/05/09 00:12:40;;;;;;;;;;;;;;;9.81;59.38;100578.05;1692287;83;20280;-79
2021/05/09 00:15:10;;;;;;;37.70;18.00;;;;;;;9.81;59.41;100571.45;1688369;83;20175;-80
2021/05/09 00:17:36;;;;;;;39.50;19.15;;;;;;;9.78;59.42;100580.97;1690503;83;21189;-79
2021/05/09 00:20:05;;;;;;;35.90;18.35;;;;;;;9.76;59.47;100582.42;1690469;84;21944;-77
2021/05/09 00:22:33;;;;;;;38.90;19.40;;;;;;;9.77;59.50;100583.25;1690752;84;21189;-79
2021/05/09 00:24:58;;;;;;;42.15;19.55;;;;;;;9.76;59.54;100578.47;1690969;83;21251;-79
2021/05/09 00:27:24;;;;;;;39.05;19.48;;;;;;;9.75;59.46;100575.97;1718559;82;28455;-84
2021/05/09 00:29:50;;;;;;;35.60;18.48;;;;;;;9.77;59.39;100578.83;1689209;83;26687;-78
2021/05/09 00:32:18;;;;;;;40.23;18.92;;;;;;;9.76;59.37;100575.01;1691224;83;21915;-80
2021/05/09 00:34:43;;;;;;;;;;;;;;;9.76;59.14;100577.15;1692546;83;22202;-79
2021/05/09 00:37:10;;;;;;;36.15;18.20;;;;;;;9.70;59.24;100576.39;1689575;84;20275;-77
2021/05/09 00:39:38;;;;;;;36.93;19.12;;;;;;;9.47;60.36;100576.66;1688346;84;21232;-78
2021/05/09 00:42:04;;;;;;;;;;;;;;;9.23;61.06;100571.80;1671542;83;21630;-79
2021/05/09 00:44:32;;;;;;;38.57;19.77;;;;;;;9.11;61.50;100578.98;1688338;84;21419;-82
2021/05/09 00:46:57;;;;;;;;;;;;;;;9.12;61.09;100578.48;1690985;84;21670;-81
2021/05/09 00:49:23;;;;;;;41.68;20.00;;;;;;;9.05;61.81;100581.34;1691600;83;20489;-79
2021/05/09 00:51:49;;;;;;;39.35;19.40;;;;;;;9.03;61.40;100580.65;1666105;84;28312;-79
2021/05/09 00:54:18;;;;;;;40.45;18.85;;;;;;;8.95;61.58;100584.78;1689756;83;26787;-78
2021/05/09 00:56:45;;;;;;;40.05;19.37;;;;;;;8.98;61.40;100580.56;1690246;83;21546;-80
2021/05/09 00:59:11;;;;;;;44.98;20.60;;;;;;;9.08;61.19;100581.89;1692076;84;21583;-79
2021/05/09 01:01:37;;;;;;;39.80;20.25;;;;;;;9.18;60.72;100578.44;1688518;83;25353;-78
2021/05/09 01:04:04;;;;;;;40.07;19.87;;;;;;;9.20;60.52;100579.98;1692102;84;21184;-80
2021/05/09 01:06:30;;;;;;;41.60;20.02;;;;;;;9.26;60.09;100578.12;1690398;83;22290;-78
2021/05/09 01:08:58;;;;;;;38.33;19.73;;;;;;;9.28;60.02;100574.03;1660583;83;21303;-79
2021/05/09 01:11:24;;;;;;;39.33;19.98;;;;;;;9.39;59.76;100575.70;1667203;84;21755;-80
2021/05/09 01:13:52;;;;;;;43.80;21.35;;;;;;;9.33;60.05;100574.44;1690788;84;21196;-80
2021/05/09 01:16:17;;;;;;;49.65;21.55;;;;;;;9.36;59.88;100572.02;1685548;84;28286;-81
2021/05/09 01:18:45;;;;;;;44.35;21.87;;;;;;;9.33;59.96;100571.31;1667732;84;21193;-83
2021/05/09 01:21:11;;;;;;;45.90;21.35;;;;;;;9.33;59.93;100572.63;1690575;84;22273;-80
2021/05/09 01:23:38;;;;;;;43.55;21.65;;;;;;;9.27;60.00;100571.86;1691119;82;27191;-81
2021/05/09 01:26:03;;;;;;;45.00;21.97;;;;;;;9.24;60.33;100568.17;1695029;82;21254;-82
2021/05/09 01:28:33;;;;;;;43.45;21.12;;;;;;;9.26;60.24;100565.41;1691001;83;28445;-79
2021/05/09 01:30:59;;;;;;;43.63;22.00;;;;;;;9.30;60.04;100564.99;1690240;84;21216;-79
2021/05/09 01:33:27;;;;;;;44.50;21.95;;;;;;;9.29;60.03;100571.26;1690596;82;21358;-81
2021/05/09 01:35:54;;;;;;;;;;;;;;;9.29;59.98;100573.03;1690310;83;21159;-79
2021/05/09 01:38:21;;;;;;;43.80;20.50;;;;;;;9.26;60.00;100574.16;1690870;83;20584;-85
2021/05/09 01:40:49;;;;;;;;;;;;;;;9.29;59.94;100579.63;1671688;83;21335;-80
2021/05/09 01:43:16;;;;;;;39.18;20.17;;;;;;;9.25;60.21;100583.03;1692535;83;20288;-79
2021/05/09 01:45:42;;;;;;;;;;;;;;;9.18;60.29;100591.12;1693809;82;21435;-77
2021/05/09 01:48:08;;;;;;;35.95;18.82;;;;;;;9.20;60.25;100602.38;1685503;82;20261;-78
2021/05/09 01:50:35;;;;;;;40.92;20.75;;;;;;;9.05;60.56;100605.05;1687097;82;24316;-81
2021/05/09 01:53:04;;;;;;;38.75;19.52;;;;;;;9.00;60.56;100599.36;1689558;84;21228;-79
2021/05/09 01:55:30;;;;;;;40.70;19.98;;;;;;;9.02;60.48;100604.00;1688417;83;21173;-79
2021/05/09 01:57:56;;;;;;;40.40;20.43;;;;;;;9.02;60.25;100595.60;1687752;84;21746;-80
2021/05/09 02:00:22;;;;;;;40.88;20.80;;;;;;;9.01;60.26;100606.27;1683570;82;27026;-78
2021/05/09 02:02:48;;;;;;;40.63;20.52;;;;;;;9.03;60.25;100607.00;1688037;82;21203;-81
2021/05/09 02:05:17;;;;;;;42.85;20.55;;;;;;;9.03;60.23;100608.31;1669578;83;28365;-84
2021/05/09 02:07:46;;;;;;;39.05;20.85;;;;;;;9.03;60.27;100599.09;1664471;84;21192;-81
2021/05/09 02:10:12;;;;;;;39.08;19.85;;;;;;;9.00;60.33;100610.72;1667072;83;21422;-80
2021/05/09 02:12:38;;;;;;;41.00;19.35;;;;;;;8.84;60.77;100613.87;1670241;84;27723;-78
2021/05/09 02:15:06;;;;;;;40.20;20.23;;;;;;;8.69;61.21;100607.30;1676259;84;25025;-81
2021/05/09 02:17:33;;;;;;;40.90;20.72;;;;;;;8.48;61.85;100609.47;1647007;84;21195;-82
2021/05/09 02:19:59;;;;;;;42.33;21.37;;;;;;;8.43;62.18;100616.91;1673386;83;21750;-81
2021/05/09 02:22:27;;;;;;;45.28;21.70;;;;;;;8.35;62.63;100616.23;1674769;83;22498;-82
2021/05/09 02:24:55;;;;;;;;;;;;;;;8.27;62.64;100618.69;1680576;84;21263;-79
2021/05/09 02:27:23;;;;;;;42.60;21.50;;;;;;;8.19;62.98;100618.52;1667157;84;20658;-77
2021/05/09 02:29:54;;;;;;;41.42;22.30;;;;;;;8.16;63.17;100622.72;1677492;83;21219;-81
2021/05/09 02:32:22;;;;;;;40.73;21.68;;;;;;;8.31;62.62;100623.20;1680757;84;22295;-77
2021/05/09 02:34:47;;;;;;;;;;;;;;;8.41;62.43;100625.42;1676686;84;21187;-81
2021/05/09 02:37:13;;;;;;;40.55;20.90;;;;;;;8.52;62.08;100617.47;1670339;83;20384;-81
2021/05/09 02:39:41;;;;;;;42.25;22.45;;;;;;;8.51;61.97;100622.37;1673730;84;21720;-81
2021/05/09 02:42:08;;;;;;;44.05;22.77;;;;;;;8.57;61.69;100631.05;1670780;84;21219;-79
2021/05/09 02:44:33;;;;;;;41.88;22.93;;;;;;;8.66;61.58;100627.31;1676429;83;21283;-80
2021/05/09 02:46:59;;;;;;;45.55;22.65;;;;;;;8.59;61.47;100625.66;1673498;84;22116;-79
2021/05/09 02:49:28;;;;;;;42.03;22.77;;;;;;;8.63;61.49;100625.76;1647748;84;25866;-79
2021/05/09 02:51:56;;;;;;;42.78;22.93;;;;;;;8.67;61.37;100626.32;1666465;83;21222;-82
2021/05/09 02:54:22;;;;;;;45.15;21.97;;;;;;;8.59;61.65;100631.78;1669202;84;21227;-83
2021/05/09 02:56:51;;;;;;;44.95;22.52;;;;;;;8.48;61.91;100636.28;1674022;84;26812;-84
2021/05/09 02:59:19;;;;;;;42.00;21.48;;;;;;;8.52;61.67;100633.26;1673583;84;21864;-78
2021/05/09 03:01:44;;;;;;;;;;;;;;;8.52;61.63;100631.95;1670726;83;21107;-79
2021/05/09 03:04:11;;;;;;;40.78;21.65;;;;;;;8.55;61.63;100633.49;1679992;84;20196;-80
2021/05/09 03:06:36;;;;;;;43.90;22.00;;;;;;;8.50;61.80;100640.46;1687727;83;21098;-79
2021/05/09 03:09:04;;;;;;;40.40;21.77;;;;;;;8.52;61.76;100633.75;1690190;83;26658;-81
2021/05/09 03:11:30;;;;;;;38.63;20.82;;;;;;;8.58;61.56;100635.37;1688933;84;21171;-83
2021/05/09 03:13:58;;;;;;;36.98;19.98;;;;;;;8.67;61.39;100632.91;1688830;83;21698;-78
2021/05/09 03:16:25;;;;;;;34.55;18.92;;;;;;;8.65;61.56;100628.27;1690306;83;21306;-79
2021/05/09 03:18:54;;;;;;;35.65;19.00;;;;;;;8.71;61.51;100636.95;1689066;83;21201;-79
2021/05/09 03:21:21;;;;;;;39.92;20.10;;;;;;;8.72;61.60;100633.36;1665738;84;21213;-79
2021/05/09 03:23:47;;;;;;;;;;;;;;;8.74;61.68;100631.42;1691117;84;21236;-80
2021/05/09 03:26:12;;;;;;;39.18;19.77;;;;;;;8.81;61.71;100632.57;1689917;84;20448;-78
2021/05/09 03:28:39;;;;;;;36.63;20.33;;;;;;;8.83;61.67;100637.20;1717375;81;24221;-78
2021/05/09 03:31:05;;;;;;;33.98;18.48;;;;;;;8.84;61.54;100630.98;1692424;83;21287;-79
2021/05/09 03:33:31;;;;;;;33.98;18.45;;;;;;;8.89;61.54;100641.13;1689113;84;26875;-78
2021/05/09 03:35:56;;;;;;;36.10;18.30;;;;;;;8.92;61.51;100640.37;1689161;83;23158;-78
2021/05/09 03:38:22;;;;;;;35.15;18.80;;;;;;;8.93;61.58;100639.41;1687299;84;27637;-80
2021/05/09 03:40:48;;;;;;;34.63;18.73;;;;;;;8.98;61.33;100639.01;1689550;83;21506;-79
2021/05/09 03:43:15;;;;;;;34.33;17.65;;;;;;;8.98;61.38;100634.56;1690000;83;28466;-78
2021/05/09 03:45:42;;;;;;;33.92;17.48;;;;;;;9.03;61.36;100638.61;1689220;84;21190;-79
2021/05/09 03:48:08;;;;;;;34.07;17.43;;;;;;;8.92;61.73;100640.86;1687357;83;21302;-79
2021/05/09 03:50:34;;;;;;;40.03;19.23;;;;;;;8.93;61.71;100644.67;1690677;83;27622;-79
2021/05/09 03:52:59;;;;;;;33.63;17.85;;;;;;;8.89;62.12;100642.44;1691063;84;25796;-79
2021/05/09 03:55:25;;;;;;;32.45;16.87;;;;;;;8.95;61.94;100640.59;1688488;83;28908;-83
2021/05/09 03:57:51;;;;;;;36.55;18.35;;;;;;;8.87;62.37;100645.20;1687591;84;27272;-80
2021/05/09 04:00:18;;;;;;;33.85;18.02;;;;;;;8.92;62.29;100646.95;1688540;83;21868;-79
2021/05/09 04:02:45;;;;;;;36.55;18.92;;;;;;;9.01;62.26;100642.69;1689072;84;21191;-79
2021/05/09 04:05:13;;;;;;;33.33;19.12;;;;;;;9.15;61.98;100641.45;1691116;83;21212;-80
2021/05/09 04:07:39;;;;;;;31.93;17.55;;;;;;;9.36;61.36;100643.19;1686846;84;21610;-80
2021/05/09 04:10:06;;;;;;;35.95;17.92;;;;;;;9.42;60.92;100642.15;1692546;83;27428;-80
2021/05/09 04:12:31;;;;;;;35.80;18.03;;;;;;;9.40;60.51;100611.61;1687980;82;21197;-79
2021/05/09 04:14:57;;;;;;;36.83;18.60;;;;;;;9.40;60.51;100611.61;1690739;83;27106;-79
2021/05/09 04:17:27;;;;;;;34.35;18.73;;;;;;;9.49;60.23;100629.25;1718857;82;25290;-80
2021/05/09 04:19:54;;;;;;;34.73;18.07;;;;;;;9.48;60.16;100624.97;1692444;84;21217;-82
2021/05/09 04:22:20;;;;;;;;;;;;;;;9.50;60.34;100628.28;1689591;84;21215;-84
2021/05/09 04:24:47;;;;;;;35.50;17.23;;;;;;;9.52;60.39;100626.34;1689923;83;21350;-79
2021/05/09 04:27:16;;;;;;;33.78;17.40;;;;;;;9.53;60.47;100633.28;1693670;83;21192;-80
2021/05/09 04:29:41;;;;;;;34.50;18.57;;;;;;;9.62;60.49;100632.46;1693863;84;21177;-82
2021/05/09 04:32:07;;;;;;;35.25;18.80;;;;;;;9.72;60.32;100639.55;1718752;82;28429;-81
2021/05/09 04:34:35;;;;;;;34.40;18.82;;;;;;;9.77;60.23;100632.89;1690882;84;26731;-81
2021/05/09 04:37:00;;;;;;;41.90;19.60;;;;;;;9.74;60.41;100628.36;1691402;84;22581;-81
2021/05/09 04:39:28;;;;;;;39.63;19.23;;;;;;;9.76;60.43;100633.03;1689927;82;27118;-82
2021/05/09 04:41:53;;;;;;;;;;;;;;;9.75;60.44;100637.45;1699294;82;21098;-81
2021/05/09 04:44:22;;;;;;;33.95;17.75;;;;;;;9.79;60.48;100638.00;1688439;84;20238;-81
2021/05/09 04:46:48;;;;;;;33.92;18.27;;;;;;;9.85;60.56;100629.53;1687955;84;21248;-81
2021/05/09 04:49:14;;;;;;;35.48;18.17;;;;;;;9.95;60.41;100634.32;1695383;82;22135;-78
2021/05/09 04:51:40;;;;;;;36.40;18.25;;;;;;;10.02;60.14;100631.48;1695131;82;27467;-81
2021/05/09 04:54:06;;;;;;;35.43;17.37;;;;;;;10.17;59.83;100628.39;1694699;84;25331;-85
2021/05/09 04:56:32;;;;;;;34.97;18.47;;;;;;;10.10;59.80;100622.01;1692462;83;21655;-82
2021/05/09 04:58:59;;;;;;;32.00;17.67;;;;;;;10.26;59.55;100630.19;1688834;82;26712;-82
2021/05/09 05:01:25;;;;;;;32.00;16.70;;;;;;;10.36;59.56;100631.04;1690324;83;21237;-81
2021/05/09 05:03:51;;;;;;;30.90;15.60;;;;;;;10.49;59.55;100635.17;1707855;82;21228;-79
2021/05/09 05:06:17;;;;;;;34.73;15.48;;;;;;;10.55;58.93;100635.42;1657628;85;25925;-79
2021/05/09 05:08:45;;;;;;;27.75;14.87;;;;;;;10.68;59.00;100635.09;1659017;85;28819;-79
2021/05/09 05:11:11;;;;;;;28.17;14.35;;;;;;;10.71;58.72;100639.27;1658079;85;21208;-78
2021/05/09 05:13:38;;;;;;;28.07;14.28;;;;;;;10.77;58.13;100639.51;1642027;85;22302;-79
2021/05/09 05:16:06;;;;;;;;;;;;;;;10.81;58.53;100642.68;1661638;84;21098;-79
2021/05/09 05:18:34;;;;;;;26.15;13.18;;;;;;;10.89;58.33;100639.31;1655589;85;20338;-78
2021/05/09 05:21:05;;;;;;;27.62;13.25;;;;;;;10.92;58.35;100634.59;1660011;85;21239;-81
2021/05/09 05:23:29;;;;;;;;;;;;;;;11.05;58.25;100628.95;1660733;85;21661;-80
2021/05/09 05:25:55;;;;;;;25.45;13.32;;;;;;;11.12;58.36;100629.19;1659166;85;21191;-79
2021/05/09 05:28:23;;;;;;;22.00;11.93;;;;;;;11.33;57.91;100626.28;1657461;84;27004;-79
2021/05/09 05:30:49;;;;;;;;;;;;;;;11.56;57.56;100625.83;1658597;85;21196;-79
2021/05/09 05:33:30;;;;;;;24.52;12.18;;;;;;;11.68;57.26;100625.47;1645037;84;20968;-81
2021/05/09 05:35:58;;;;;;;25.17;11.83;;;;;;;11.80;56.83;100618.12;1660426;84;21580;-78
2021/05/09 05:38:25;;;;;;;22.50;11.65;;;;;;;11.89;55.73;100615.05;1660255;85;21652;-79
2021/05/09 05:40:55;;;;;;;23.90;11.55;;;;;;;12.10;55.23;100616.05;1660537;85;21220;-80
2021/05/09 05:43:23;;;;;;;20.70;10.88;;;;;;;12.11;54.88;100611.11;1656588;84;21227;-77
2021/05/09 05:45:51;;;;;;;22.67;11.53;;;;;;;12.19;54.80;100613.80;1658830;84;21074;-77
2021/05/09 05:48:17;;;;;;;;;;;;;;;12.29;55.04;100614.20;1655411;84;21291;-77
2021/05/09 05:50:45;;;;;;;21.62;11.53;;;;;;;12.34;55.14;100614.08;1659195;85;21179;-78
2021/05/09 05:53:14;;;;;;;21.50;11.53;;;;;;;12.46;55.18;100622.59;1659942;84;21627;-77
2021/05/09 05:55:41;;;;;;;24.18;12.28;;;;;;;12.52;55.37;100619.33;1659595;85;21201;-77
2021/05/09 05:58:10;;;;;;;;;;;;;;;12.50;55.07;100623.93;1662076;85;21275;-80
2021/05/09 06:00:36;;;;;;;20.02;11.10;;;;;;;12.71;54.81;100616.11;1657318;84;20332;-79
2021/05/09 06:03:02;;;;;;;22.60;11.93;;;;;;;12.79;54.85;100617.45;1640701;85;21199;-80
2021/05/09 06:05:27;;;;;;;22.93;11.73;;;;;;;12.97;54.74;100617.85;1653362;85;27303;-79
2021/05/09 06:07:59;;;;;;;21.05;11.50;;;;;;;13.02;54.73;100610.23;1675404;84;25303;-79
2021/05/09 06:10:27;;;;;;;21.57;11.57;;;;;;;12.98;54.46;100614.22;1677305;85;21159;-79
2021/05/09 06:12:56;;;;;;;;;;;;;;;13.09;54.45;100609.94;1680245;84;21289;-79
2021/05/09 06:15:24;;;;;;;22.75;10.95;;;;;;;13.14;53.96;100606.30;1678978;83;21352;-81
2021/05/09 06:17:53;;;;;;;20.65;11.12;;;;;;;13.26;53.82;100605.00;1675716;84;21263;-79
2021/05/09 06:20:19;;;;;;;19.73;10.68;;;;;;;13.27;53.64;100605.86;1677370;83;21098;-80
2021/05/09 06:22:44;;;;;;;20.15;10.48;;;;;;;13.43;53.48;100610.38;1677945;83;21009;-81
2021/05/09 06:25:10;;;;;;;17.70;10.23;;;;;;;13.52;52.28;100601.45;1677025;84;21048;-80
2021/05/09 06:27:36;;;;;;;16.93;9.50;;;;;;;13.61;50.89;100607.57;1675921;84;22148;-80
2021/05/09 06:30:03;;;;;;;17.30;9.30;;;;;;;13.75;50.68;100604.76;1656028;85;21649;-81
2021/05/09 06:32:29;;;;;;;16.07;8.48;;;;;;;13.78;49.58;100599.97;1676126;85;21503;-82
2021/05/09 06:34:56;;;;;;;14.13;8.13;;;;;;;13.83;49.09;100599.47;1675428;83;20906;-81
2021/05/09 06:37:22;;;;;;;;;;;;;;;13.94;49.22;100592.48;1681948;83;21208;-81
2021/05/09 06:39:51;;;;;;;15.70;8.28;;;;;;;14.05;48.00;100591.31;1677148;83;20614;-82
2021/05/09 06:42:18;;;;;;;14.55;7.58;;;;;;;14.12;47.63;100588.80;1673734;84;21206;-83
2021/05/09 06:44:48;;;;;;;15.03;7.20;;;;;;;14.19;47.57;100581.83;1659870;85;22220;-82
2021/05/09 06:47:13;;;;;;;;;;;;;;;14.35;46.65;100580.45;1681219;83;21199;-84
2021/05/09 06:49:38;;;;;;;13.28;6.80;;;;;;;14.42;46.14;100583.75;1676008;84;20291;-80
2021/05/09 06:52:05;;;;;;;14.87;7.00;;;;;;;14.50;46.42;100582.42;1675552;85;21268;-81
2021/05/09 06:54:37;;;;;;;14.17;6.67;;;;;;;14.55;45.53;100580.06;1676724;83;21231;-81
2021/05/09 06:57:03;;;;;;;13.20;6.40;;;;;;;14.69;45.29;100580.70;1674946;84;21102;-81
2021/05/09 06:59:30;;;;;;;14.47;7.05;;;;;;;14.92;45.11;100573.30;1675927;84;21196;-82
2021/05/09 07:02:00;;;;;;;13.20;6.55;;;;;;;14.98;44.18;100571.27;1675600;84;21228;-82
2021/05/09 07:04:25;;;;;;;14.18;6.85;;;;;;;15.07;43.81;100572.03;1658411;84;23482;-82
2021/05/09 07:06:51;;;;;;;13.08;6.47;;;;;;;15.20;42.99;100571.48;1687301;83;21053;-81
2021/05/09 07:09:17;;;;;;;12.70;6.08;;;;;;;15.35;42.41;100573.70;1665800;84;20950;-81
2021/05/09 07:11:44;;;;;;;;;;;;;;;15.49;41.75;100576.59;1689857;83;21188;-84
2021/05/09 07:14:11;;;;;;;8.38;5.00;;;;;;;15.57;41.03;100573.38;1687140;83;20461;-84
2021/05/09 07:16:39;;;;;;;11.93;5.50;;;;;;;15.75;41.25;100572.22;1687593;84;21544;-84
2021/05/09 07:19:07;;;;;;;12.23;6.12;;;;;;;15.83;41.67;100568.69;1687080;83;21249;-83
2021/05/09 07:21:40;;;;;;;;;;;;;;;15.84;41.15;100566.36;1689618;83;21073;-81
2021/05/09 07:24:03;;;;;;;10.68;5.00;;;;;;;15.85;40.71;100562.67;1686189;83;20192;-86
2021/05/09 07:26:29;;;;;;;11.35;5.12;;;;;;;15.96;40.05;100560.92;1687739;84;21217;-84
2021/05/09 07:28:54;;;;;;;10.75;5.03;;;;;;;16.11;39.76;100561.77;1687880;84;21496;-82
2021/05/09 07:31:22;;;;;;;9.85;5.37;;;;;;;16.15;39.13;100560.38;1686364;84;21083;-83
2021/05/09 07:33:50;;;;;;;10.45;5.58;;;;;;;16.21;39.36;100548.69;1665723;84;21179;-84
2021/05/09 07:36:19;;;;;;;12.15;5.67;;;;;;;16.24;39.04;100552.31;1692020;83;21273;-83
2021/05/09 07:38:47;;;;;;;13.43;5.62;;;;;;;16.14;38.36;100554.75;1673816;83;21208;-84
2021/05/09 07:41:14;;;;;;;13.38;5.65;;;;;;;16.26;38.45;100559.61;1692674;83;21340;-85
2021/05/09 07:43:40;;;;;;;11.95;5.33;;;;;;;16.47;38.04;100554.89;1693767;83;21678;-80
2021/05/09 07:46:10;;;;;;;9.48;5.12;;;;;;;16.53;37.54;100551.97;1691249;83;20943;-82
2021/05/09 07:48:37;;;;;;;11.88;5.60;;;;;;;16.60;37.57;100560.89;1686784;83;21786;-83
2021/05/09 07:51:04;;;;;;;10.88;5.50;;;;;;;16.58;37.40;100556.23;1673066;83;21249;-80
2021/05/09 07:53:29;;;;;;;8.65;5.22;;;;;;;16.63;36.98;100547.19;1687859;83;21310;-85
2021/05/09 07:55:56;;;;;;;9.38;5.33;;;;;;;16.65;36.18;100561.16;1686776;84;21105;-80
2021/05/09 07:58:24;;;;;;;10.75;5.20;;;;;;;16.69;36.22;100561.11;1692260;83;29079;-81
2021/05/09 08:00:52;;;;;;;15.85;5.78;;;;;;;16.89;37.12;100551.20;1688411;83;21262;-82
2021/05/09 08:03:19;;;;;;;9.80;5.40;;;;;;;16.92;36.99;100552.16;1687874;84;21250;-82
2021/05/09 08:05:47;;;;;;;11.85;5.90;;;;;;;17.02;36.64;100540.69;1661496;83;21800;-82
2021/05/09 08:08:12;;;;;;;11.33;5.70;;;;;;;17.03;36.38;100535.69;1700996;82;21188;-81
2021/05/09 08:10:41;;;;;;;10.40;5.53;;;;;;;17.12;37.01;100530.55;1698703;82;20953;-86
2021/05/09 08:13:10;;;;;;;11.45;5.95;;;;;;;17.07;36.76;100527.59;1697741;83;21185;-80
2021/05/09 08:15:41;;;;;;;15.28;6.28;;;;;;;17.21;37.07;100521.89;1724055;82;21306;-82
2021/05/09 08:18:07;;;;;;;12.13;5.60;;;;;;;17.19;36.43;100526.08;1693544;83;21828;-79
2021/05/09 08:20:33;;;;;;;11.78;5.80;;;;;;;17.26;35.97;100521.31;1702520;83;21060;-84
2021/05/09 08:22:59;;;;;;;11.10;5.67;;;;;;;17.38;36.21;100526.45;1698355;82;21036;-82
2021/05/09 08:25:25;;;;;;;11.30;5.67;;;;;;;17.48;36.43;100524.30;1698140;83;21199;-81
2021/05/09 08:27:51;;;;;;;9.43;5.25;;;;;;;17.65;36.46;100524.01;1696252;82;21059;-79
2021/05/09 08:30:24;;;;;;;9.23;5.20;;;;;;;17.76;35.96;100516.82;1700338;83;21180;-80
2021/05/09 08:32:51;;;;;;;9.28;5.17;;;;;;;17.85;35.88;100512.13;1699787;83;21223;-84
2021/05/09 08:35:19;;;;;;;11.80;5.12;;;;;;;17.97;35.59;100512.46;1700406;83;21490;-80
2021/05/09 08:37:44;;;;;;;12.07;5.78;;;;;;;17.94;35.28;100511.84;1702538;83;21228;-80
2021/05/09 08:40:14;;;;;;;8.93;4.92;;;;;;;18.04;35.16;100512.82;1694706;83;21128;-81
2021/05/09 08:42:45;;;;;;;9.18;5.22;;;;;;;18.13;35.56;100506.78;1700721;83;21409;-84
2021/05/09 08:45:12;;;;;;;11.57;5.40;;;;;;;18.18;35.61;100507.53;1698897;83;21073;-80
2021/05/09 08:47:42;;;;;;;11.00;5.22;;;;;;;18.15;35.82;100502.09;1699850;82;21239;-79
2021/05/09 08:50:24;;;;;;;9.40;5.25;;;;;;;18.14;34.68;100506.30;1705039;82;21207;-83
2021/05/09 08:52:51;;;;;;;8.43;4.83;;;;;;;18.25;34.78;100510.55;1700418;83;21215;-84
2021/05/09 08:55:23;;;;;;;9.88;5.12;;;;;;;18.11;34.66;100511.52;1696726;83;39075;-80
2021/05/09 08:57:49;;;;;;;8.63;5.08;;;;;;;18.34;35.04;100507.73;1702739;83;21663;-81
2021/05/09 09:00:16;;;;;;;11.50;4.97;;;;;;;18.38;35.35;100508.97;1698999;83;21052;-83
2021/05/09 09:02:45;;;;;;;14.15;5.37;;;;;;;18.43;34.90;100511.89;1669588;82;21693;-82
2021/05/09 09:05:13;;;;;;;10.10;4.83;;;;;;;18.53;35.07;100523.55;1699141;82;21247;-82
2021/05/09 09:07:51;;;;;;;10.93;5.08;;;;;;;18.56;35.74;100517.28;1678108;84;21654;-82
2021/05/09 09:10:42;;;;;;;9.08;4.80;;;;;;;18.52;35.00;100513.38;1670514;84;21268;-81
2021/05/09 09:13:28;;;;;;;8.95;4.60;;;;;;;18.56;34.97;100515.95;1674172;84;21207;-87
2021/05/09 09:16:06;;;;;;;7.75;4.12;;;;;;;18.50;33.90;100507.38;1674821;84;21225;-82
2021/05/09 09:18:36;;;;;;;8.03;4.20;;;;;;;18.70;34.32;100493.27;1671349;84;21235;-81
2021/05/09 09:21:31;;;;;;;7.15;4.05;;;;;;;18.62;33.33;100479.03;1675853;84;22091;-83
2021/05/09 09:24:05;;;;;;;9.13;4.20;;;;;;;18.75;33.68;100478.27;1585431;88;21267;-81
2021/05/09 09:26:52;;;;;;;8.95;3.98;;;;;;;18.78;33.69;100477.02;1608457;87;21653;-80
2021/05/09 09:29:36;;;;;;;9.50;4.50;;;;;;;18.83;33.36;100471.88;1647520;84;21119;-81
2021/05/09 09:32:10;;;;;;;9.50;4.58;;;;;;;18.91;34.10;100465.05;1675785;83;21215;-80
2021/05/09 09:34:50;;;;;;;9.45;4.05;;;;;;;18.96;33.53;100471.95;1677119;83;21230;-82
2021/05/09 09:37:16;;;;;;;9.65;4.47;;;;;;;18.99;33.94;100470.20;1664133;84;21191;-81
2021/05/09 09:39:48;;;;;;;7.60;4.03;;;;;;;19.20;34.49;100460.33;1669362;83;21189;-81
2021/05/09 09:42:17;;;;;;;6.83;3.62;;;;;;;19.19;34.06;100474.23;1664470;84;21220;-82
2021/05/09 09:44:42;;;;;;;7.67;3.80;;;;;;;19.21;32.99;100478.05;1668032;84;21669;-81
2021/05/09 09:47:09;;;;;;;7.17;3.45;;;;;;;19.37;32.37;100465.60;1672372;84;21163;-80
2021/05/09 09:49:38;;;;;;;5.53;3.60;;;;;;;19.37;32.37;100465.60;1671582;84;21184;-79
2021/05/09 09:52:09;;;;;;;5.72;3.60;;;;;;;19.37;32.68;100487.03;1667549;83;21275;-85
2021/05/09 09:54:46;;;;;;;5.97;3.60;;;;;;;19.15;31.98;100477.00;1670114;84;21255;-81
2021/05/09 09:57:28;;;;;;;5.53;3.67;;;;;;;19.18;32.04;100471.77;1672651;84;21219;-87
2021/05/09 10:00:11;;;;;;;5.78;3.47;;;;;;;19.27;31.76;100481.25;1673147;84;21746;-83
2021/05/09 10:02:39;;;;;;;5.22;3.37;;;;;;;19.26;31.65;100476.91;1663752;84;21208;-80
2021/05/09 10:05:07;;;;;;;5.80;3.50;;;;;;;19.36;31.59;100484.03;1674980;84;21199;-84
2021/05/09 10:07:33;;;;;;;9.20;3.55;;;;;;;19.53;32.21;100480.42;1687461;83;22336;-80
2021/05/09 10:10:00;;;;;;;7.20;3.72;;;;;;;19.55;31.92;100474.33;1688087;82;20965;-81
2021/05/09 10:12:29;;;;;;;5.83;3.50;;;;;;;19.68;32.26;100469.47;1691459;83;21239;-81
2021/05/09 10:14:56;;;;;;;6.28;3.35;;;;;;;19.78;31.77;100464.23;1689148;84;21259;-85
2021/05/09 10:17:24;;;;;;;6.28;3.30;;;;;;;19.79;32.15;100456.50;1692064;83;21225;-83
2021/05/09 10:19:51;;;;;;;;;;;;;;;19.84;31.46;100449.98;1692203;83;21247;-80
2021/05/09 10:22:32;;;;;;;7.00;3.15;;;;;;;19.80;32.06;100464.34;1690110;83;20303;-82
2021/05/09 10:24:58;;;;;;;6.12;3.25;;;;;;;19.52;32.07;100464.56;1692723;84;22043;-81
2021/05/09 10:27:42;;;;;;;5.58;3.02;;;;;;;19.74;31.57;100456.58;1688389;84;21089;-81
2021/05/09 10:30:14;;;;;;;6.62;3.45;;;;;;;19.82;31.24;100462.27;1693217;84;21207;-81
2021/05/09 10:32:48;;;;;;;4.55;3.02;;;;;;;19.81;31.40;100457.11;1713132;82;21200;-82
2021/05/09 10:35:15;;;;;;;6.60;3.12;;;;;;;19.83;31.75;100461.23;1691451;84;21199;-84
2021/05/09 10:37:45;;;;;;;;;;;;;;;19.85;31.72;100448.97;1692586;83;21208;-80
2021/05/09 10:40:20;;;;;;;4.53;2.75;;;;;;;20.05;32.65;100455.62;1687237;84;20268;-80
2021/05/09 10:43:12;;;;;;;5.97;3.00;;;;;;;19.91;31.12;100460.19;1691362;83;21206;-82
2021/05/09 10:45:43;;;;;;;5.15;2.90;;;;;;;19.94;31.12;100461.11;1691016;82;21176;-83
2021/05/09 10:48:30;;;;;;;4.90;2.95;;;;;;;20.14;31.01;100448.17;1693113;84;21733;-79
2021/05/09 10:51:14;;;;;;;4.62;2.60;;;;;;;20.28;31.62;100442.23;1690106;82;21219;-80
2021/05/09 10:53:44;;;;;;;6.22;2.92;;;;;;;20.09;30.93;100448.28;1698511;82;21219;-81
2021/05/09 10:56:25;;;;;;;5.00;3.20;;;;;;;19.85;31.05;100440.41;1689247;83;21229;-84
2021/05/09 10:58:53;;;;;;;4.95;2.95;;;;;;;20.16;31.23;100438.05;1689328;84;21236;-84
2021/05/09 11:01:29;;;;;;;5.80;2.92;;;;;;;20.30;31.51;100428.91;1692923;83;22333;-82
2021/05/09 11:04:13;;;;;;;4.85;3.00;;;;;;;20.45;31.59;100420.06;1687180;82;21991;-82
2021/05/09 11:06:44;;;;;;;5.90;3.22;;;;;;;19.99;31.01;100438.51;1688701;84;21106;-83
2021/05/09 11:09:12;;;;;;;6.00;2.80;;;;;;;20.26;30.78;100427.70;1692081;83;21209;-86
2021/05/09 11:11:47;;;;;;;4.28;2.65;;;;;;;20.40;30.96;100415.02;1672112;83;21269;-84
2021/05/09 11:14:16;;;;;;;5.83;2.60;;;;;;;20.31;31.15;100417.15;1693216;83;21591;-81
2021/05/09 11:16:44;;;;;;;5.33;3.00;;;;;;;20.56;30.85;100419.08;1691063;84;22222;-81
2021/05/09 11:19:13;;;;;;;5.95;2.92;;;;;;;20.40;30.86;100419.05;1669375;84;21198;-81
2021/05/09 11:21:50;;;;;;;5.15;2.98;;;;;;;20.31;30.94;100411.78;1691597;83;21193;-82
2021/05/09 11:24:34;;;;;;;6.17;2.70;;;;;;;20.52;30.65;100412.49;1693005;83;21209;-82
2021/05/09 11:27:12;;;;;;;4.28;2.55;;;;;;;20.67;30.62;100407.68;1686940;83;21084;-81
2021/05/09 11:29:42;;;;;;;4.53;2.60;;;;;;;20.75;30.89;100408.75;1670905;84;21180;-78